sensor_id;sensor_type;location;lat;lon;timestamp;P1;durP1;ratioP1;P2;durP2;ratioP2
29362;SDS011;16349;53.672;10.014;2023-04-26T00:00:41;4.20;;;1.30;;
29362;SDS011;16349;53.672;10.014;2023-04-26T00:03:09;6.83;;;1.53;;
29362;SDS011;16349;53.672;10.014;2023-04-26T00:05:37;5.80;;;1.10;;
29362;SDS011;16349;53.672;10.014;2023-04-26T00:08:04;3.90;;;1.00;;
29362;SDS011;16349;53.672;10.014;2023-04-26T00:10:31;4.50;;;1.50;;
29362;SDS011;16349;53.672;10.014;2023-04-26T00:12:58;6.87;;;1.60;;
29362;SDS011;16349;53.672;10.014;2023-04-26T00:15:25;3.30;;;1.17;;
29362;SDS011;16349;53.672;10.014;2023-04-26T00:17:52;6.07;;;1.20;;
29362;SDS011;16349;53.672;10.014;2023-04-26T00:20:20;4.17;;;1.33;;
29362;SDS011;16349;53.672;10.014;2023-04-26T00:22:47;6.50;;;1.20;;
29362;SDS011;16349;53.672;10.014;2023-04-26T00:25:14;1.93;;;1.03;;
29362;SDS011;16349;53.672;10.014;2023-04-26T00:27:41;5.57;;;1.17;;
29362;SDS011;16349;53.672;10.014;2023-04-26T00:30:09;8.77;;;1.70;;
29362;SDS011;16349;53.672;10.014;2023-04-26T00:32:36;2.70;;;1.10;;
29362;SDS011;16349;53.672;10.014;2023-04-26T00:35:05;4.00;;;1.30;;
29362;SDS011;16349;53.672;10.014;2023-04-26T00:37:34;5.70;;;0.90;;
29362;SDS011;16349;53.672;10.014;2023-04-26T00:40:01;7.30;;;1.03;;
29362;SDS011;16349;53.672;10.014;2023-04-26T00:42:30;3.30;;;1.20;;
29362;SDS011;16349;53.672;10.014;2023-04-26T00:44:57;2.90;;;0.97;;
29362;SDS011;16349;53.672;10.014;2023-04-26T00:47:24;4.10;;;0.93;;
29362;SDS011;16349;53.672;10.014;2023-04-26T00:49:52;3.23;;;0.73;;
29362;SDS011;16349;53.672;10.014;2023-04-26T00:52:19;8.90;;;1.00;;
29362;SDS011;16349;53.672;10.014;2023-04-26T00:54:48;2.90;;;0.83;;
29362;SDS011;16349;53.672;10.014;2023-04-26T00:57:15;5.93;;;1.07;;
29362;SDS011;16349;53.672;10.014;2023-04-26T00:59:43;4.67;;;1.00;;
29362;SDS011;16349;53.672;10.014;2023-04-26T01:02:10;6.60;;;1.20;;
29362;SDS011;16349;53.672;10.014;2023-04-26T01:04:37;3.73;;;0.90;;
29362;SDS011;16349;53.672;10.014;2023-04-26T01:07:05;1.37;;;0.60;;
29362;SDS011;16349;53.672;10.014;2023-04-26T01:09:33;2.30;;;1.00;;
29362;SDS011;16349;53.672;10.014;2023-04-26T01:12:01;4.73;;;1.07;;
29362;SDS011;16349;53.672;10.014;2023-04-26T01:14:30;6.63;;;1.17;;
29362;SDS011;16349;53.672;10.014;2023-04-26T01:16:58;5.93;;;1.00;;
29362;SDS011;16349;53.672;10.014;2023-04-26T01:19:26;4.83;;;1.10;;
29362;SDS011;16349;53.672;10.014;2023-04-26T01:21:53;4.30;;;1.10;;
29362;SDS011;16349;53.672;10.014;2023-04-26T01:24:22;2.83;;;1.13;;
29362;SDS011;16349;53.672;10.014;2023-04-26T01:26:49;5.87;;;1.10;;
29362;SDS011;16349;53.672;10.014;2023-04-26T01:29:16;3.97;;;0.93;;
29362;SDS011;16349;53.672;10.014;2023-04-26T01:31:45;6.67;;;0.90;;
29362;SDS011;16349;53.672;10.014;2023-04-26T01:34:12;6.97;;;1.00;;
29362;SDS011;16349;53.672;10.014;2023-04-26T01:37:01;5.27;;;1.27;;
29362;SDS011;16349;53.672;10.014;2023-04-26T01:39:29;3.53;;;1.13;;
29362;SDS011;16349;53.672;10.014;2023-04-26T01:41:56;5.07;;;1.17;;
29362;SDS011;16349;53.672;10.014;2023-04-26T01:44:23;2.73;;;1.13;;
29362;SDS011;16349;53.672;10.014;2023-04-26T01:47:12;3.93;;;1.00;;
29362;SDS011;16349;53.672;10.014;2023-04-26T01:49:39;6.37;;;1.27;;
29362;SDS011;16349;53.672;10.014;2023-04-26T01:52:06;4.07;;;1.37;;
29362;SDS011;16349;53.672;10.014;2023-04-26T01:54:35;3.73;;;1.10;;
29362;SDS011;16349;53.672;10.014;2023-04-26T01:57:01;5.30;;;1.53;;
29362;SDS011;16349;53.672;10.014;2023-04-26T01:59:29;4.40;;;1.60;;
29362;SDS011;16349;53.672;10.014;2023-04-26T02:01:57;3.43;;;1.83;;
29362;SDS011;16349;53.672;10.014;2023-04-26T02:04:24;4.23;;;1.60;;
29362;SDS011;16349;53.672;10.014;2023-04-26T02:06:51;6.23;;;1.40;;
29362;SDS011;16349;53.672;10.014;2023-04-26T02:09:17;7.43;;;1.57;;
29362;SDS011;16349;53.672;10.014;2023-04-26T02:11:46;5.53;;;1.90;;
29362;SDS011;16349;53.672;10.014;2023-04-26T02:14:12;5.67;;;1.90;;
29362;SDS011;16349;53.672;10.014;2023-04-26T02:16:40;8.43;;;1.30;;
29362;SDS011;16349;53.672;10.014;2023-04-26T02:19:07;4.27;;;1.50;;
29362;SDS011;16349;53.672;10.014;2023-04-26T02:21:50;2.80;;;1.70;;
29362;SDS011;16349;53.672;10.014;2023-04-26T02:24:19;7.27;;;1.30;;
29362;SDS011;16349;53.672;10.014;2023-04-26T02:26:47;6.60;;;1.17;;
29362;SDS011;16349;53.672;10.014;2023-04-26T02:29:14;5.00;;;1.50;;
29362;SDS011;16349;53.672;10.014;2023-04-26T02:31:41;4.43;;;1.30;;
29362;SDS011;16349;53.672;10.014;2023-04-26T02:34:10;4.93;;;1.50;;
29362;SDS011;16349;53.672;10.014;2023-04-26T02:36:37;6.67;;;1.50;;
29362;SDS011;16349;53.672;10.014;2023-04-26T02:39:04;1.90;;;1.43;;
29362;SDS011;16349;53.672;10.014;2023-04-26T02:41:32;7.83;;;1.77;;
29362;SDS011;16349;53.672;10.014;2023-04-26T02:44:00;4.77;;;1.47;;
29362;SDS011;16349;53.672;10.014;2023-04-26T02:46:27;5.20;;;1.43;;
29362;SDS011;16349;53.672;10.014;2023-04-26T02:48:55;5.30;;;1.33;;
29362;SDS011;16349;53.672;10.014;2023-04-26T02:51:21;5.03;;;1.63;;
29362;SDS011;16349;53.672;10.014;2023-04-26T02:53:49;4.13;;;1.70;;
29362;SDS011;16349;53.672;10.014;2023-04-26T02:56:16;6.40;;;1.67;;
29362;SDS011;16349;53.672;10.014;2023-04-26T02:58:44;6.90;;;1.50;;
29362;SDS011;16349;53.672;10.014;2023-04-26T03:01:13;3.13;;;1.73;;
29362;SDS011;16349;53.672;10.014;2023-04-26T03:03:40;4.13;;;1.40;;
29362;SDS011;16349;53.672;10.014;2023-04-26T03:06:07;6.47;;;1.60;;
29362;SDS011;16349;53.672;10.014;2023-04-26T03:08:35;7.70;;;1.80;;
29362;SDS011;16349;53.672;10.014;2023-04-26T03:11:02;3.00;;;1.63;;
29362;SDS011;16349;53.672;10.014;2023-04-26T03:13:29;7.00;;;1.93;;
29362;SDS011;16349;53.672;10.014;2023-04-26T03:15:57;4.80;;;1.10;;
29362;SDS011;16349;53.672;10.014;2023-04-26T03:18:25;3.10;;;1.50;;
29362;SDS011;16349;53.672;10.014;2023-04-26T03:20:53;4.97;;;1.87;;
29362;SDS011;16349;53.672;10.014;2023-04-26T03:23:20;7.20;;;2.37;;
29362;SDS011;16349;53.672;10.014;2023-04-26T03:25:49;7.07;;;1.63;;
29362;SDS011;16349;53.672;10.014;2023-04-26T03:28:16;4.60;;;1.53;;
29362;SDS011;16349;53.672;10.014;2023-04-26T03:30:43;3.57;;;1.50;;
29362;SDS011;16349;53.672;10.014;2023-04-26T03:33:10;3.23;;;1.67;;
29362;SDS011;16349;53.672;10.014;2023-04-26T03:35:40;6.87;;;2.33;;
29362;SDS011;16349;53.672;10.014;2023-04-26T03:38:06;6.67;;;1.80;;
29362;SDS011;16349;53.672;10.014;2023-04-26T03:40:34;4.57;;;1.70;;
29362;SDS011;16349;53.672;10.014;2023-04-26T03:43:01;6.00;;;2.20;;
29362;SDS011;16349;53.672;10.014;2023-04-26T03:45:28;5.50;;;2.20;;
29362;SDS011;16349;53.672;10.014;2023-04-26T03:47:55;7.80;;;2.07;;
29362;SDS011;16349;53.672;10.014;2023-04-26T03:50:22;6.10;;;2.70;;
29362;SDS011;16349;53.672;10.014;2023-04-26T03:52:51;7.23;;;2.23;;
29362;SDS011;16349;53.672;10.014;2023-04-26T03:55:18;8.83;;;2.33;;
29362;SDS011;16349;53.672;10.014;2023-04-26T03:57:45;6.37;;;2.33;;
29362;SDS011;16349;53.672;10.014;2023-04-26T04:00:14;6.60;;;2.70;;
29362;SDS011;16349;53.672;10.014;2023-04-26T04:02:41;5.57;;;2.00;;
29362;SDS011;16349;53.672;10.014;2023-04-26T04:05:13;8.67;;;2.50;;
29362;SDS011;16349;53.672;10.014;2023-04-26T04:07:40;4.97;;;2.50;;
29362;SDS011;16349;53.672;10.014;2023-04-26T04:10:09;4.63;;;2.40;;
29362;SDS011;16349;53.672;10.014;2023-04-26T04:12:37;10.37;;;2.40;;
29362;SDS011;16349;53.672;10.014;2023-04-26T04:15:05;3.77;;;2.00;;
29362;SDS011;16349;53.672;10.014;2023-04-26T04:17:34;7.73;;;2.47;;
29362;SDS011;16349;53.672;10.014;2023-04-26T04:20:01;6.23;;;2.07;;
29362;SDS011;16349;53.672;10.014;2023-04-26T04:22:29;4.80;;;2.10;;
29362;SDS011;16349;53.672;10.014;2023-04-26T04:24:56;7.90;;;2.13;;
29362;SDS011;16349;53.672;10.014;2023-04-26T04:27:25;5.60;;;2.13;;
29362;SDS011;16349;53.672;10.014;2023-04-26T04:29:52;6.43;;;1.97;;
29362;SDS011;16349;53.672;10.014;2023-04-26T04:32:22;4.97;;;2.20;;
29362;SDS011;16349;53.672;10.014;2023-04-26T04:34:49;6.50;;;1.93;;
29362;SDS011;16349;53.672;10.014;2023-04-26T04:37:18;5.53;;;2.00;;
29362;SDS011;16349;53.672;10.014;2023-04-26T04:39:46;6.57;;;2.00;;
29362;SDS011;16349;53.672;10.014;2023-04-26T04:42:13;3.83;;;1.80;;
29362;SDS011;16349;53.672;10.014;2023-04-26T04:44:42;6.77;;;1.93;;
29362;SDS011;16349;53.672;10.014;2023-04-26T04:47:09;4.77;;;2.30;;
29362;SDS011;16349;53.672;10.014;2023-04-26T04:49:37;2.23;;;1.90;;
29362;SDS011;16349;53.672;10.014;2023-04-26T04:52:04;7.93;;;2.30;;
29362;SDS011;16349;53.672;10.014;2023-04-26T04:54:32;10.03;;;2.70;;
29362;SDS011;16349;53.672;10.014;2023-04-26T04:57:00;8.27;;;1.80;;
29362;SDS011;16349;53.672;10.014;2023-04-26T04:59:27;6.97;;;2.40;;
29362;SDS011;16349;53.672;10.014;2023-04-26T05:01:55;5.53;;;2.70;;
29362;SDS011;16349;53.672;10.014;2023-04-26T05:04:22;7.93;;;2.47;;
29362;SDS011;16349;53.672;10.014;2023-04-26T05:06:49;11.83;;;3.53;;
29362;SDS011;16349;53.672;10.014;2023-04-26T05:09:16;16.53;;;3.40;;
29362;SDS011;16349;53.672;10.014;2023-04-26T05:11:43;5.23;;;2.60;;
29362;SDS011;16349;53.672;10.014;2023-04-26T05:14:11;5.10;;;2.60;;
29362;SDS011;16349;53.672;10.014;2023-04-26T05:16:38;8.20;;;2.80;;
29362;SDS011;16349;53.672;10.014;2023-04-26T05:19:07;5.00;;;3.00;;
29362;SDS011;16349;53.672;10.014;2023-04-26T05:21:56;15.07;;;4.30;;
29362;SDS011;16349;53.672;10.014;2023-04-26T05:24:45;22.03;;;7.30;;
29362;SDS011;16349;53.672;10.014;2023-04-26T05:27:13;10.43;;;4.03;;
29362;SDS011;16349;53.672;10.014;2023-04-26T05:29:52;6.03;;;2.10;;
29362;SDS011;16349;53.672;10.014;2023-04-26T05:32:40;7.70;;;3.03;;
29362;SDS011;16349;53.672;10.014;2023-04-26T05:35:33;15.30;;;3.57;;
29362;SDS011;16349;53.672;10.014;2023-04-26T05:38:01;5.73;;;2.40;;
29362;SDS011;16349;53.672;10.014;2023-04-26T05:40:28;8.60;;;3.10;;
29362;SDS011;16349;53.672;10.014;2023-04-26T05:42:55;7.20;;;2.60;;
29362;SDS011;16349;53.672;10.014;2023-04-26T05:45:24;5.67;;;2.33;;
29362;SDS011;16349;53.672;10.014;2023-04-26T05:47:52;5.07;;;2.53;;
29362;SDS011;16349;53.672;10.014;2023-04-26T05:50:19;5.87;;;2.47;;
29362;SDS011;16349;53.672;10.014;2023-04-26T05:52:48;4.10;;;2.30;;
29362;SDS011;16349;53.672;10.014;2023-04-26T05:55:18;9.70;;;2.57;;
29362;SDS011;16349;53.672;10.014;2023-04-26T05:57:47;11.67;;;3.50;;
29362;SDS011;16349;53.672;10.014;2023-04-26T06:00:15;7.73;;;2.67;;
29362;SDS011;16349;53.672;10.014;2023-04-26T06:02:46;8.43;;;2.50;;
29362;SDS011;16349;53.672;10.014;2023-04-26T06:05:16;6.43;;;2.50;;
29362;SDS011;16349;53.672;10.014;2023-04-26T06:07:45;9.93;;;2.70;;
29362;SDS011;16349;53.672;10.014;2023-04-26T06:10:13;5.17;;;2.50;;
29362;SDS011;16349;53.672;10.014;2023-04-26T06:12:40;8.03;;;2.77;;
29362;SDS011;16349;53.672;10.014;2023-04-26T06:15:07;3.53;;;2.70;;
29362;SDS011;16349;53.672;10.014;2023-04-26T06:17:38;8.43;;;2.50;;
29362;SDS011;16349;53.672;10.014;2023-04-26T06:20:06;5.87;;;2.67;;
29362;SDS011;16349;53.672;10.014;2023-04-26T06:22:34;7.00;;;3.00;;
29362;SDS011;16349;53.672;10.014;2023-04-26T06:25:02;5.17;;;2.60;;
29362;SDS011;16349;53.672;10.014;2023-04-26T06:27:53;4.43;;;3.40;;
29362;SDS011;16349;53.672;10.014;2023-04-26T06:30:19;2.90;;;2.60;;
29362;SDS011;16349;53.672;10.014;2023-04-26T06:32:48;6.47;;;2.77;;
29362;SDS011;16349;53.672;10.014;2023-04-26T06:35:15;3.87;;;2.73;;
29362;SDS011;16349;53.672;10.014;2023-04-26T06:37:43;5.93;;;2.50;;
29362;SDS011;16349;53.672;10.014;2023-04-26T06:40:12;7.77;;;3.23;;
29362;SDS011;16349;53.672;10.014;2023-04-26T06:42:41;6.03;;;2.53;;
29362;SDS011;16349;53.672;10.014;2023-04-26T06:45:22;11.77;;;3.30;;
29362;SDS011;16349;53.672;10.014;2023-04-26T06:47:50;13.87;;;2.77;;
29362;SDS011;16349;53.672;10.014;2023-04-26T06:50:17;5.77;;;3.03;;
29362;SDS011;16349;53.672;10.014;2023-04-26T06:52:45;8.57;;;2.67;;
29362;SDS011;16349;53.672;10.014;2023-04-26T06:55:13;6.87;;;2.50;;
29362;SDS011;16349;53.672;10.014;2023-04-26T06:57:40;6.87;;;3.07;;
29362;SDS011;16349;53.672;10.014;2023-04-26T07:00:08;10.70;;;3.67;;
29362;SDS011;16349;53.672;10.014;2023-04-26T07:02:36;6.73;;;2.97;;
29362;SDS011;16349;53.672;10.014;2023-04-26T07:05:03;11.13;;;2.60;;
29362;SDS011;16349;53.672;10.014;2023-04-26T07:07:30;6.30;;;3.00;;
29362;SDS011;16349;53.672;10.014;2023-04-26T07:09:58;3.70;;;2.50;;
29362;SDS011;16349;53.672;10.014;2023-04-26T07:12:26;10.00;;;2.47;;
29362;SDS011;16349;53.672;10.014;2023-04-26T07:14:53;10.43;;;2.57;;
29362;SDS011;16349;53.672;10.014;2023-04-26T07:17:20;8.47;;;2.70;;
29362;SDS011;16349;53.672;10.014;2023-04-26T07:20:07;6.77;;;2.87;;
29362;SDS011;16349;53.672;10.014;2023-04-26T07:22:35;6.17;;;3.00;;
29362;SDS011;16349;53.672;10.014;2023-04-26T07:25:04;9.80;;;3.47;;
29362;SDS011;16349;53.672;10.014;2023-04-26T07:27:33;4.27;;;2.40;;
29362;SDS011;16349;53.672;10.014;2023-04-26T07:30:00;5.13;;;2.20;;
29362;SDS011;16349;53.672;10.014;2023-04-26T07:32:28;11.60;;;2.77;;
29362;SDS011;16349;53.672;10.014;2023-04-26T07:34:55;9.20;;;2.87;;
29362;SDS011;16349;53.672;10.014;2023-04-26T07:37:23;3.53;;;2.57;;
29362;SDS011;16349;53.672;10.014;2023-04-26T07:39:51;7.27;;;2.17;;
29362;SDS011;16349;53.672;10.014;2023-04-26T07:42:17;7.07;;;2.47;;
29362;SDS011;16349;53.672;10.014;2023-04-26T07:44:47;6.40;;;2.50;;
29362;SDS011;16349;53.672;10.014;2023-04-26T07:47:14;8.30;;;2.50;;
29362;SDS011;16349;53.672;10.014;2023-04-26T07:49:41;8.00;;;2.93;;
29362;SDS011;16349;53.672;10.014;2023-04-26T07:52:08;6.13;;;2.27;;
29362;SDS011;16349;53.672;10.014;2023-04-26T07:54:35;7.43;;;1.63;;
29362;SDS011;16349;53.672;10.014;2023-04-26T07:57:02;5.83;;;2.47;;
29362;SDS011;16349;53.672;10.014;2023-04-26T07:59:30;3.13;;;1.70;;
29362;SDS011;16349;53.672;10.014;2023-04-26T08:01:58;4.50;;;1.90;;
29362;SDS011;16349;53.672;10.014;2023-04-26T08:04:31;5.67;;;2.03;;
29362;SDS011;16349;53.672;10.014;2023-04-26T08:06:59;4.60;;;1.40;;
29362;SDS011;16349;53.672;10.014;2023-04-26T08:09:26;2.40;;;1.53;;
29362;SDS011;16349;53.672;10.014;2023-04-26T08:11:54;2.37;;;1.47;;
29362;SDS011;16349;53.672;10.014;2023-04-26T08:14:21;3.00;;;1.27;;
29362;SDS011;16349;53.672;10.014;2023-04-26T08:16:48;2.60;;;1.00;;
29362;SDS011;16349;53.672;10.014;2023-04-26T08:19:16;6.63;;;1.50;;
29362;SDS011;16349;53.672;10.014;2023-04-26T08:21:43;3.13;;;1.50;;
29362;SDS011;16349;53.672;10.014;2023-04-26T08:24:10;4.60;;;1.20;;
29362;SDS011;16349;53.672;10.014;2023-04-26T08:26:37;1.73;;;1.17;;
29362;SDS011;16349;53.672;10.014;2023-04-26T08:29:05;5.57;;;1.40;;
29362;SDS011;16349;53.672;10.014;2023-04-26T08:31:54;4.40;;;1.27;;
29362;SDS011;16349;53.672;10.014;2023-04-26T08:34:23;7.13;;;1.50;;
29362;SDS011;16349;53.672;10.014;2023-04-26T08:37:12;3.37;;;0.90;;
29362;SDS011;16349;53.672;10.014;2023-04-26T08:39:39;3.60;;;1.50;;
29362;SDS011;16349;53.672;10.014;2023-04-26T08:42:12;5.23;;;1.20;;
29362;SDS011;16349;53.672;10.014;2023-04-26T08:44:40;3.60;;;1.33;;
29362;SDS011;16349;53.672;10.014;2023-04-26T08:47:09;3.40;;;1.03;;
29362;SDS011;16349;53.672;10.014;2023-04-26T08:49:42;6.30;;;1.60;;
29362;SDS011;16349;53.672;10.014;2023-04-26T08:52:12;2.73;;;1.83;;
29362;SDS011;16349;53.672;10.014;2023-04-26T08:54:41;5.87;;;1.27;;
29362;SDS011;16349;53.672;10.014;2023-04-26T08:57:12;4.80;;;1.17;;
29362;SDS011;16349;53.672;10.014;2023-04-26T08:59:39;4.07;;;0.90;;
29362;SDS011;16349;53.672;10.014;2023-04-26T09:02:08;6.47;;;1.43;;
29362;SDS011;16349;53.672;10.014;2023-04-26T09:04:36;3.57;;;0.93;;
29362;SDS011;16349;53.672;10.014;2023-04-26T09:07:04;3.43;;;1.23;;
29362;SDS011;16349;53.672;10.014;2023-04-26T09:09:33;4.17;;;1.40;;
29362;SDS011;16349;53.672;10.014;2023-04-26T09:12:02;3.97;;;1.63;;
29362;SDS011;16349;53.672;10.014;2023-04-26T09:14:29;2.87;;;1.30;;
29362;SDS011;16349;53.672;10.014;2023-04-26T09:16:56;3.60;;;1.30;;
29362;SDS011;16349;53.672;10.014;2023-04-26T09:19:35;2.87;;;1.43;;
29362;SDS011;16349;53.672;10.014;2023-04-26T09:22:04;4.10;;;1.07;;
29362;SDS011;16349;53.672;10.014;2023-04-26T09:24:44;4.90;;;1.10;;
29362;SDS011;16349;53.672;10.014;2023-04-26T09:27:14;4.70;;;1.23;;
29362;SDS011;16349;53.672;10.014;2023-04-26T09:29:55;2.13;;;1.47;;
29362;SDS011;16349;53.672;10.014;2023-04-26T09:32:25;4.50;;;1.10;;
29362;SDS011;16349;53.672;10.014;2023-04-26T09:34:53;6.77;;;1.40;;
29362;SDS011;16349;53.672;10.014;2023-04-26T09:37:21;1.20;;;0.83;;
29362;SDS011;16349;53.672;10.014;2023-04-26T09:39:47;3.07;;;1.13;;
29362;SDS011;16349;53.672;10.014;2023-04-26T09:42:15;7.53;;;1.27;;
29362;SDS011;16349;53.672;10.014;2023-04-26T09:44:44;5.67;;;1.10;;
29362;SDS011;16349;53.672;10.014;2023-04-26T09:47:12;3.50;;;1.10;;
29362;SDS011;16349;53.672;10.014;2023-04-26T09:49:43;1.83;;;1.13;;
29362;SDS011;16349;53.672;10.014;2023-04-26T09:52:13;3.97;;;1.10;;
29362;SDS011;16349;53.672;10.014;2023-04-26T09:54:45;1.90;;;1.27;;
29362;SDS011;16349;53.672;10.014;2023-04-26T09:57:14;3.17;;;1.13;;
29362;SDS011;16349;53.672;10.014;2023-04-26T09:59:43;4.60;;;1.00;;
29362;SDS011;16349;53.672;10.014;2023-04-26T10:02:18;3.00;;;1.00;;
29362;SDS011;16349;53.672;10.014;2023-04-26T10:04:48;3.80;;;0.87;;
29362;SDS011;16349;53.672;10.014;2023-04-26T10:07:16;4.17;;;1.10;;
29362;SDS011;16349;53.672;10.014;2023-04-26T10:09:45;6.17;;;1.00;;
29362;SDS011;16349;53.672;10.014;2023-04-26T10:12:12;1.90;;;1.00;;
29362;SDS011;16349;53.672;10.014;2023-04-26T10:14:41;3.63;;;1.17;;
29362;SDS011;16349;53.672;10.014;2023-04-26T10:17:27;1.97;;;1.30;;
29362;SDS011;16349;53.672;10.014;2023-04-26T10:19:56;1.97;;;0.93;;
29362;SDS011;16349;53.672;10.014;2023-04-26T10:22:24;1.60;;;1.50;;
29362;SDS011;16349;53.672;10.014;2023-04-26T10:24:55;3.30;;;1.00;;
29362;SDS011;16349;53.672;10.014;2023-04-26T10:30:18;4.00;;;1.30;;
29362;SDS011;16349;53.672;10.014;2023-04-26T10:36:03;5.17;;;1.20;;
29362;SDS011;16349;53.672;10.014;2023-04-26T10:38:33;2.13;;;0.83;;
29362;SDS011;16349;53.672;10.014;2023-04-26T10:47:19;3.43;;;0.93;;
29362;SDS011;16349;53.672;10.014;2023-04-26T10:50:10;4.67;;;2.13;;
29362;SDS011;16349;53.672;10.014;2023-04-26T10:52:37;2.63;;;1.10;;
29362;SDS011;16349;53.672;10.014;2023-04-26T10:55:38;2.63;;;1.20;;
29362;SDS011;16349;53.672;10.014;2023-04-26T11:01:02;2.93;;;0.57;;
29362;SDS011;16349;53.672;10.014;2023-04-26T11:03:32;1.07;;;0.80;;
29362;SDS011;16349;53.672;10.014;2023-04-26T11:05:59;4.57;;;1.00;;
29362;SDS011;16349;53.672;10.014;2023-04-26T11:08:26;1.40;;;0.70;;
29362;SDS011;16349;53.672;10.014;2023-04-26T11:11:04;4.33;;;1.00;;
29362;SDS011;16349;53.672;10.014;2023-04-26T11:13:34;1.83;;;0.70;;
29362;SDS011;16349;53.672;10.014;2023-04-26T11:16:02;2.17;;;0.83;;
29362;SDS011;16349;53.672;10.014;2023-04-26T11:18:52;2.17;;;0.70;;
29362;SDS011;16349;53.672;10.014;2023-04-26T11:21:21;2.43;;;0.90;;
29362;SDS011;16349;53.672;10.014;2023-04-26T11:23:53;2.73;;;0.90;;
29362;SDS011;16349;53.672;10.014;2023-04-26T11:26:40;2.67;;;0.50;;
29362;SDS011;16349;53.672;10.014;2023-04-26T11:29:07;2.07;;;0.53;;
29362;SDS011;16349;53.672;10.014;2023-04-26T11:31:37;2.17;;;0.80;;
29362;SDS011;16349;53.672;10.014;2023-04-26T11:34:04;5.53;;;0.90;;
29362;SDS011;16349;53.672;10.014;2023-04-26T11:36:30;1.90;;;0.70;;
29362;SDS011;16349;53.672;10.014;2023-04-26T11:38:57;2.63;;;0.70;;
29362;SDS011;16349;53.672;10.014;2023-04-26T11:41:26;2.40;;;0.90;;
29362;SDS011;16349;53.672;10.014;2023-04-26T11:43:54;2.00;;;0.70;;
29362;SDS011;16349;53.672;10.014;2023-04-26T11:46:24;6.27;;;0.77;;
29362;SDS011;16349;53.672;10.014;2023-04-26T11:48:51;3.83;;;0.70;;
29362;SDS011;16349;53.672;10.014;2023-04-26T11:51:19;2.10;;;0.80;;
29362;SDS011;16349;53.672;10.014;2023-04-26T11:53:47;1.73;;;0.90;;
29362;SDS011;16349;53.672;10.014;2023-04-26T11:56:18;2.97;;;1.30;;
29362;SDS011;16349;53.672;10.014;2023-04-26T11:58:48;3.80;;;0.80;;
29362;SDS011;16349;53.672;10.014;2023-04-26T12:01:22;2.10;;;0.67;;
29362;SDS011;16349;53.672;10.014;2023-04-26T12:03:51;1.83;;;0.80;;
29362;SDS011;16349;53.672;10.014;2023-04-26T12:06:18;1.83;;;0.90;;
29362;SDS011;16349;53.672;10.014;2023-04-26T12:08:48;3.17;;;0.73;;
29362;SDS011;16349;53.672;10.014;2023-04-26T12:11:17;3.10;;;1.17;;
29362;SDS011;16349;53.672;10.014;2023-04-26T12:13:44;3.03;;;0.90;;
29362;SDS011;16349;53.672;10.014;2023-04-26T12:16:14;4.97;;;0.90;;
29362;SDS011;16349;53.672;10.014;2023-04-26T12:18:48;1.00;;;0.57;;
29362;SDS011;16349;53.672;10.014;2023-04-26T12:21:15;1.67;;;0.67;;
29362;SDS011;16349;53.672;10.014;2023-04-26T12:23:44;1.43;;;0.70;;
29362;SDS011;16349;53.672;10.014;2023-04-26T12:26:12;2.93;;;0.57;;
29362;SDS011;16349;53.672;10.014;2023-04-26T12:28:39;2.97;;;0.77;;
29362;SDS011;16349;53.672;10.014;2023-04-26T12:31:06;1.20;;;0.40;;
29362;SDS011;16349;53.672;10.014;2023-04-26T12:33:33;6.17;;;0.87;;
29362;SDS011;16349;53.672;10.014;2023-04-26T12:36:08;3.03;;;0.90;;
29362;SDS011;16349;53.672;10.014;2023-04-26T12:38:36;1.57;;;0.80;;
29362;SDS011;16349;53.672;10.014;2023-04-26T12:41:04;2.50;;;0.90;;
29362;SDS011;16349;53.672;10.014;2023-04-26T12:43:32;3.57;;;1.43;;
29362;SDS011;16349;53.672;10.014;2023-04-26T12:45:59;2.70;;;0.90;;
29362;SDS011;16349;53.672;10.014;2023-04-26T12:48:45;4.53;;;1.23;;
29362;SDS011;16349;53.672;10.014;2023-04-26T12:51:13;3.83;;;1.10;;
29362;SDS011;16349;53.672;10.014;2023-04-26T12:53:40;2.23;;;0.70;;
29362;SDS011;16349;53.672;10.014;2023-04-26T12:56:07;2.33;;;0.60;;
29362;SDS011;16349;53.672;10.014;2023-04-26T12:58:35;3.10;;;0.60;;
29362;SDS011;16349;53.672;10.014;2023-04-26T13:01:21;2.30;;;0.77;;
29362;SDS011;16349;53.672;10.014;2023-04-26T13:03:47;2.90;;;0.77;;
29362;SDS011;16349;53.672;10.014;2023-04-26T13:06:16;1.53;;;0.90;;
29362;SDS011;16349;53.672;10.014;2023-04-26T13:08:45;2.97;;;0.93;;
29362;SDS011;16349;53.672;10.014;2023-04-26T13:11:12;2.87;;;0.80;;
29362;SDS011;16349;53.672;10.014;2023-04-26T13:13:39;2.63;;;0.80;;
29362;SDS011;16349;53.672;10.014;2023-04-26T13:16:06;2.97;;;0.70;;
29362;SDS011;16349;53.672;10.014;2023-04-26T13:18:33;2.40;;;0.83;;
29362;SDS011;16349;53.672;10.014;2023-04-26T13:21:00;4.37;;;1.37;;
29362;SDS011;16349;53.672;10.014;2023-04-26T13:23:29;2.40;;;0.70;;
29362;SDS011;16349;53.672;10.014;2023-04-26T13:25:58;1.60;;;0.80;;
29362;SDS011;16349;53.672;10.014;2023-04-26T13:28:25;3.80;;;0.90;;
29362;SDS011;16349;53.672;10.014;2023-04-26T13:30:52;2.23;;;0.97;;
29362;SDS011;16349;53.672;10.014;2023-04-26T13:33:43;2.73;;;0.87;;
29362;SDS011;16349;53.672;10.014;2023-04-26T13:36:11;2.30;;;0.90;;
29362;SDS011;16349;53.672;10.014;2023-04-26T13:38:41;4.03;;;0.90;;
29362;SDS011;16349;53.672;10.014;2023-04-26T13:41:08;1.77;;;0.67;;
29362;SDS011;16349;53.672;10.014;2023-04-26T13:43:36;3.50;;;0.83;;
29362;SDS011;16349;53.672;10.014;2023-04-26T13:46:04;1.50;;;0.80;;
29362;SDS011;16349;53.672;10.014;2023-04-26T13:48:31;2.40;;;1.27;;
29362;SDS011;16349;53.672;10.014;2023-04-26T13:50:58;1.80;;;1.00;;
29362;SDS011;16349;53.672;10.014;2023-04-26T13:53:24;2.20;;;0.60;;
29362;SDS011;16349;53.672;10.014;2023-04-26T13:55:52;1.70;;;0.70;;
29362;SDS011;16349;53.672;10.014;2023-04-26T13:58:19;2.17;;;0.80;;
29362;SDS011;16349;53.672;10.014;2023-04-26T14:00:46;2.40;;;1.13;;
29362;SDS011;16349;53.672;10.014;2023-04-26T14:03:14;1.90;;;0.67;;
29362;SDS011;16349;53.672;10.014;2023-04-26T14:05:41;3.17;;;0.70;;
29362;SDS011;16349;53.672;10.014;2023-04-26T14:08:08;6.90;;;1.57;;
29362;SDS011;16349;53.672;10.014;2023-04-26T14:10:36;4.63;;;0.90;;
29362;SDS011;16349;53.672;10.014;2023-04-26T14:13:04;2.57;;;0.80;;
29362;SDS011;16349;53.672;10.014;2023-04-26T14:15:31;4.17;;;1.23;;
29362;SDS011;16349;53.672;10.014;2023-04-26T14:18:20;3.93;;;1.13;;
29362;SDS011;16349;53.672;10.014;2023-04-26T14:20:47;1.90;;;0.90;;
29362;SDS011;16349;53.672;10.014;2023-04-26T14:23:15;3.57;;;1.13;;
29362;SDS011;16349;53.672;10.014;2023-04-26T14:25:41;2.27;;;0.90;;
29362;SDS011;16349;53.672;10.014;2023-04-26T14:28:10;1.20;;;0.73;;
29362;SDS011;16349;53.672;10.014;2023-04-26T14:30:40;3.20;;;1.10;;
29362;SDS011;16349;53.672;10.014;2023-04-26T14:33:07;1.47;;;1.03;;
29362;SDS011;16349;53.672;10.014;2023-04-26T14:35:56;4.47;;;1.07;;
29362;SDS011;16349;53.672;10.014;2023-04-26T14:38:22;4.30;;;1.27;;
29362;SDS011;16349;53.672;10.014;2023-04-26T14:40:49;2.87;;;1.00;;
29362;SDS011;16349;53.672;10.014;2023-04-26T14:43:17;1.23;;;0.70;;
29362;SDS011;16349;53.672;10.014;2023-04-26T14:45:44;3.27;;;0.87;;
29362;SDS011;16349;53.672;10.014;2023-04-26T14:48:11;1.73;;;0.80;;
29362;SDS011;16349;53.672;10.014;2023-04-26T14:50:38;3.57;;;0.93;;
29362;SDS011;16349;53.672;10.014;2023-04-26T14:53:05;3.80;;;1.20;;
29362;SDS011;16349;53.672;10.014;2023-04-26T14:55:31;2.47;;;0.90;;
29362;SDS011;16349;53.672;10.014;2023-04-26T14:57:58;3.40;;;1.10;;
29362;SDS011;16349;53.672;10.014;2023-04-26T15:00:27;4.90;;;1.00;;